Terminal Aerodrome Forecast
Issued by NWS Wilmington, OH

Current Version | Previous Version | Graphics & Text | Print | Product List | Glossary On
Versions: 1 2 3 4 5 6 7 8 9 10 11 12 13 14 15 16 17 18 19 20
000
FTUS41 KILN 281000 AAA
TAFDAY
TAF AMD
KDAY 281034Z 2811/2906 30011KT P6SM BKN020
     FM281400 31013KT P6SM -SHRA BKN025
     FM281900 32012G20KT P6SM BKN035
     FM290000 32008KT P6SM SCT035=

USA.gov is the U.S. government's official web portal to all federal, state and local government web resources and services.